sensor_id;sensor_type;location;lat;lon;timestamp;temperature;humidity
9497;DHT22;4786;51.270;4.456;2022-11-20T00:01:14;5.30;99.90
9497;DHT22;4786;51.270;4.456;2022-11-20T00:03:41;5.10;99.90
9497;DHT22;4786;51.270;4.456;2022-11-20T00:06:10;5.20;99.90
9497;DHT22;4786;51.270;4.456;2022-11-20T00:08:35;5.30;99.90
9497;DHT22;4786;51.270;4.456;2022-11-20T00:11:06;5.30;99.90
9497;DHT22;4786;51.270;4.456;2022-11-20T00:13:33;5.10;99.90
9497;DHT22;4786;51.270;4.456;2022-11-20T00:16:00;5.00;99.90
9497;DHT22;4786;51.270;4.456;2022-11-20T00:18:27;5.00;99.90
9497;DHT22;4786;51.270;4.456;2022-11-20T00:20:53;5.10;99.90
9497;DHT22;4786;51.270;4.456;2022-11-20T00:23:19;5.00;99.90
9497;DHT22;4786;51.270;4.456;2022-11-20T00:25:45;5.10;99.90
9497;DHT22;4786;51.270;4.456;2022-11-20T00:28:12;5.10;99.90
9497;DHT22;4786;51.270;4.456;2022-11-20T00:30:37;5.20;99.90
9497;DHT22;4786;51.270;4.456;2022-11-20T00:33:03;5.10;99.90
9497;DHT22;4786;51.270;4.456;2022-11-20T00:35:29;5.20;99.90
9497;DHT22;4786;51.270;4.456;2022-11-20T00:37:55;5.20;99.90
9497;DHT22;4786;51.270;4.456;2022-11-20T00:40:21;5.20;99.90
9497;DHT22;4786;51.270;4.456;2022-11-20T00:42:47;5.20;99.90
9497;DHT22;4786;51.270;4.456;2022-11-20T00:45:13;5.10;99.90
9497;DHT22;4786;51.270;4.456;2022-11-20T00:47:39;5.20;99.90
9497;DHT22;4786;51.270;4.456;2022-11-20T00:50:06;5.20;99.90
9497;DHT22;4786;51.270;4.456;2022-11-20T00:52:32;5.30;99.90
9497;DHT22;4786;51.270;4.456;2022-11-20T00:54:57;5.30;99.90
9497;DHT22;4786;51.270;4.456;2022-11-20T00:57:23;5.30;99.90
9497;DHT22;4786;51.270;4.456;2022-11-20T00:59:49;5.30;99.90
9497;DHT22;4786;51.270;4.456;2022-11-20T01:02:15;5.30;99.90
9497;DHT22;4786;51.270;4.456;2022-11-20T01:04:42;5.30;99.90
9497;DHT22;4786;51.270;4.456;2022-11-20T01:07:08;5.30;99.90
9497;DHT22;4786;51.270;4.456;2022-11-20T01:09:34;5.20;99.90
9497;DHT22;4786;51.270;4.456;2022-11-20T01:12:00;5.10;99.90
9497;DHT22;4786;51.270;4.456;2022-11-20T01:14:26;5.00;99.90
9497;DHT22;4786;51.270;4.456;2022-11-20T01:16:52;5.00;99.90
9497;DHT22;4786;51.270;4.456;2022-11-20T01:19:20;5.00;99.90
9497;DHT22;4786;51.270;4.456;2022-11-20T01:21:49;4.90;99.90
9497;DHT22;4786;51.270;4.456;2022-11-20T01:24:18;4.90;99.90
9497;DHT22;4786;51.270;4.456;2022-11-20T01:26:45;5.00;99.90
9497;DHT22;4786;51.270;4.456;2022-11-20T01:29:18;5.00;99.90
9497;DHT22;4786;51.270;4.456;2022-11-20T01:31:44;5.00;99.90
9497;DHT22;4786;51.270;4.456;2022-11-20T01:34:13;5.20;99.90
9497;DHT22;4786;51.270;4.456;2022-11-20T01:36:40;5.10;99.90
9497;DHT22;4786;51.270;4.456;2022-11-20T01:39:14;5.00;99.90
9497;DHT22;4786;51.270;4.456;2022-11-20T01:41:40;5.00;99.90
9497;DHT22;4786;51.270;4.456;2022-11-20T01:44:53;5.00;99.90
9497;DHT22;4786;51.270;4.456;2022-11-20T01:47:35;5.00;99.90
9497;DHT22;4786;51.270;4.456;2022-11-20T01:50:13;5.00;99.90
9497;DHT22;4786;51.270;4.456;2022-11-20T01:52:49;5.00;99.90
9497;DHT22;4786;51.270;4.456;2022-11-20T01:55:24;5.00;99.90
9497;DHT22;4786;51.270;4.456;2022-11-20T01:57:51;5.00;99.90
9497;DHT22;4786;51.270;4.456;2022-11-20T02:00:19;4.90;99.90
9497;DHT22;4786;51.270;4.456;2022-11-20T02:02:53;5.00;99.90
9497;DHT22;4786;51.270;4.456;2022-11-20T02:05:29;4.90;99.90
9497;DHT22;4786;51.270;4.456;2022-11-20T02:07:58;5.10;99.90
9497;DHT22;4786;51.270;4.456;2022-11-20T02:10:24;5.00;99.90
9497;DHT22;4786;51.270;4.456;2022-11-20T02:12:51;5.10;99.90
9497;DHT22;4786;51.270;4.456;2022-11-20T02:15:35;5.10;99.90
9497;DHT22;4786;51.270;4.456;2022-11-20T02:18:01;5.10;99.90
9497;DHT22;4786;51.270;4.456;2022-11-20T02:20:27;5.20;99.90
9497;DHT22;4786;51.270;4.456;2022-11-20T02:23:03;5.30;99.90
9497;DHT22;4786;51.270;4.456;2022-11-20T02:25:32;5.30;99.90
9497;DHT22;4786;51.270;4.456;2022-11-20T02:27:59;5.30;99.90
9497;DHT22;4786;51.270;4.456;2022-11-20T02:30:25;5.30;99.90
9497;DHT22;4786;51.270;4.456;2022-11-20T02:32:51;5.30;99.90
9497;DHT22;4786;51.270;4.456;2022-11-20T02:37:48;5.20;99.90
9497;DHT22;4786;51.270;4.456;2022-11-20T02:40:15;5.10;99.90
9497;DHT22;4786;51.270;4.456;2022-11-20T02:42:41;5.10;99.90
9497;DHT22;4786;51.270;4.456;2022-11-20T02:45:07;5.00;99.90
9497;DHT22;4786;51.270;4.456;2022-11-20T02:47:33;5.00;99.90
9497;DHT22;4786;51.270;4.456;2022-11-20T02:49:59;5.00;99.90
9497;DHT22;4786;51.270;4.456;2022-11-20T02:52:26;5.00;99.90
9497;DHT22;4786;51.270;4.456;2022-11-20T02:54:51;4.90;99.90
9497;DHT22;4786;51.270;4.456;2022-11-20T02:57:18;5.00;99.90
9497;DHT22;4786;51.270;4.456;2022-11-20T02:59:44;4.80;99.90
9497;DHT22;4786;51.270;4.456;2022-11-20T03:02:10;5.10;99.90
9497;DHT22;4786;51.270;4.456;2022-11-20T03:04:36;4.80;99.90
9497;DHT22;4786;51.270;4.456;2022-11-20T03:07:02;4.80;99.90
9497;DHT22;4786;51.270;4.456;2022-11-20T03:09:28;4.70;99.90
9497;DHT22;4786;51.270;4.456;2022-11-20T03:11:54;4.60;99.90
9497;DHT22;4786;51.270;4.456;2022-11-20T03:14:20;4.50;99.90
9497;DHT22;4786;51.270;4.456;2022-11-20T03:16:48;4.50;99.90
9497;DHT22;4786;51.270;4.456;2022-11-20T03:19:14;4.40;99.90
9497;DHT22;4786;51.270;4.456;2022-11-20T03:21:40;4.40;99.90
9497;DHT22;4786;51.270;4.456;2022-11-20T03:24:06;4.30;99.90
9497;DHT22;4786;51.270;4.456;2022-11-20T03:26:32;4.30;99.90
9497;DHT22;4786;51.270;4.456;2022-11-20T03:29:01;4.30;99.90
9497;DHT22;4786;51.270;4.456;2022-11-20T03:31:30;4.20;99.90
9497;DHT22;4786;51.270;4.456;2022-11-20T03:33:57;4.20;99.90
9497;DHT22;4786;51.270;4.456;2022-11-20T03:36:25;4.10;99.90
9497;DHT22;4786;51.270;4.456;2022-11-20T03:38:53;4.20;99.90
9497;DHT22;4786;51.270;4.456;2022-11-20T03:41:23;4.20;99.90
9497;DHT22;4786;51.270;4.456;2022-11-20T03:43:55;4.30;99.90
9497;DHT22;4786;51.270;4.456;2022-11-20T03:46:22;4.30;99.90
9497;DHT22;4786;51.270;4.456;2022-11-20T03:48:49;4.20;99.90
9497;DHT22;4786;51.270;4.456;2022-11-20T03:51:24;4.10;99.90
9497;DHT22;4786;51.270;4.456;2022-11-20T03:53:53;4.10;99.90
9497;DHT22;4786;51.270;4.456;2022-11-20T03:56:24;4.20;99.90
9497;DHT22;4786;51.270;4.456;2022-11-20T03:58:51;4.30;99.90
9497;DHT22;4786;51.270;4.456;2022-11-20T04:01:20;4.30;99.90
9497;DHT22;4786;51.270;4.456;2022-11-20T04:03:47;4.40;99.90
9497;DHT22;4786;51.270;4.456;2022-11-20T04:06:16;4.30;99.90
9497;DHT22;4786;51.270;4.456;2022-11-20T04:08:42;4.30;99.90
9497;DHT22;4786;51.270;4.456;2022-11-20T04:13:39;4.20;99.90
9497;DHT22;4786;51.270;4.456;2022-11-20T04:16:06;4.20;99.90
9497;DHT22;4786;51.270;4.456;2022-11-20T04:18:33;4.20;99.90
9497;DHT22;4786;51.270;4.456;2022-11-20T04:20:59;4.40;99.90
9497;DHT22;4786;51.270;4.456;2022-11-20T04:23:26;4.30;99.90
9497;DHT22;4786;51.270;4.456;2022-11-20T04:25:53;4.40;99.90
9497;DHT22;4786;51.270;4.456;2022-11-20T04:28:19;4.50;99.90
9497;DHT22;4786;51.270;4.456;2022-11-20T04:30:45;4.50;99.90
9497;DHT22;4786;51.270;4.456;2022-11-20T04:33:11;4.50;99.90
9497;DHT22;4786;51.270;4.456;2022-11-20T04:35:37;4.50;99.90
9497;DHT22;4786;51.270;4.456;2022-11-20T04:38:04;4.50;99.90
9497;DHT22;4786;51.270;4.456;2022-11-20T04:40:30;4.60;99.90
9497;DHT22;4786;51.270;4.456;2022-11-20T04:42:56;4.70;99.90
9497;DHT22;4786;51.270;4.456;2022-11-20T04:45:23;4.50;99.90
9497;DHT22;4786;51.270;4.456;2022-11-20T04:47:49;4.80;99.90
9497;DHT22;4786;51.270;4.456;2022-11-20T04:50:14;4.60;99.90
9497;DHT22;4786;51.270;4.456;2022-11-20T04:52:40;4.50;99.90
9497;DHT22;4786;51.270;4.456;2022-11-20T04:55:06;4.60;99.90
9497;DHT22;4786;51.270;4.456;2022-11-20T04:57:32;4.60;99.90
9497;DHT22;4786;51.270;4.456;2022-11-20T04:59:58;4.70;99.90
9497;DHT22;4786;51.270;4.456;2022-11-20T05:02:23;4.80;99.90
9497;DHT22;4786;51.270;4.456;2022-11-20T05:04:49;4.90;99.90
9497;DHT22;4786;51.270;4.456;2022-11-20T05:07:16;4.70;99.90
9497;DHT22;4786;51.270;4.456;2022-11-20T05:09:42;5.00;99.90
9497;DHT22;4786;51.270;4.456;2022-11-20T05:12:08;5.00;99.90
9497;DHT22;4786;51.270;4.456;2022-11-20T05:14:34;4.90;99.90
9497;DHT22;4786;51.270;4.456;2022-11-20T05:17:01;4.90;99.90
9497;DHT22;4786;51.270;4.456;2022-11-20T05:19:26;5.00;99.90
9497;DHT22;4786;51.270;4.456;2022-11-20T05:21:52;5.00;99.90
9497;DHT22;4786;51.270;4.456;2022-11-20T05:24:17;4.90;99.90
9497;DHT22;4786;51.270;4.456;2022-11-20T05:26:43;4.90;99.90
9497;DHT22;4786;51.270;4.456;2022-11-20T05:29:10;4.90;99.90
9497;DHT22;4786;51.270;4.456;2022-11-20T05:31:39;4.90;99.90
9497;DHT22;4786;51.270;4.456;2022-11-20T05:34:05;5.00;99.90
9497;DHT22;4786;51.270;4.456;2022-11-20T05:36:31;5.10;99.90
9497;DHT22;4786;51.270;4.456;2022-11-20T05:38:57;5.10;99.90
9497;DHT22;4786;51.270;4.456;2022-11-20T05:41:23;5.00;99.90
9497;DHT22;4786;51.270;4.456;2022-11-20T05:43:50;5.20;99.90
9497;DHT22;4786;51.270;4.456;2022-11-20T05:46:19;5.10;99.90
9497;DHT22;4786;51.270;4.456;2022-11-20T05:48:46;5.00;99.90
9497;DHT22;4786;51.270;4.456;2022-11-20T05:51:16;5.20;99.90
9497;DHT22;4786;51.270;4.456;2022-11-20T05:53:43;5.00;99.90
9497;DHT22;4786;51.270;4.456;2022-11-20T05:56:17;5.00;99.90
9497;DHT22;4786;51.270;4.456;2022-11-20T05:58:44;5.00;99.90
9497;DHT22;4786;51.270;4.456;2022-11-20T06:03:39;4.90;99.90
9497;DHT22;4786;51.270;4.456;2022-11-20T06:06:06;4.90;99.90
9497;DHT22;4786;51.270;4.456;2022-11-20T06:08:33;4.90;99.90
9497;DHT22;4786;51.270;4.456;2022-11-20T06:11:06;4.90;99.90
9497;DHT22;4786;51.270;4.456;2022-11-20T06:13:40;5.10;99.90
9497;DHT22;4786;51.270;4.456;2022-11-20T06:16:06;5.10;99.90
9497;DHT22;4786;51.270;4.456;2022-11-20T06:18:32;4.90;99.90
9497;DHT22;4786;51.270;4.456;2022-11-20T06:21:05;4.90;99.90
9497;DHT22;4786;51.270;4.456;2022-11-20T06:23:32;4.90;99.90
9497;DHT22;4786;51.270;4.456;2022-11-20T06:26:04;5.00;99.90
9497;DHT22;4786;51.270;4.456;2022-11-20T06:28:30;5.00;99.90
9497;DHT22;4786;51.270;4.456;2022-11-20T06:30:57;5.00;99.90
9497;DHT22;4786;51.270;4.456;2022-11-20T06:33:24;5.10;99.90
9497;DHT22;4786;51.270;4.456;2022-11-20T06:35:50;5.40;99.90
9497;DHT22;4786;51.270;4.456;2022-11-20T06:38:16;5.10;99.90
9497;DHT22;4786;51.270;4.456;2022-11-20T06:40:42;5.10;99.90
9497;DHT22;4786;51.270;4.456;2022-11-20T06:43:11;5.00;99.90
9497;DHT22;4786;51.270;4.456;2022-11-20T06:45:37;5.00;99.90
9497;DHT22;4786;51.270;4.456;2022-11-20T06:48:03;5.00;99.90
9497;DHT22;4786;51.270;4.456;2022-11-20T06:50:29;5.00;99.90
9497;DHT22;4786;51.270;4.456;2022-11-20T06:52:55;5.00;99.90
9497;DHT22;4786;51.270;4.456;2022-11-20T06:55:21;4.90;99.90
9497;DHT22;4786;51.270;4.456;2022-11-20T06:57:47;5.00;99.90
9497;DHT22;4786;51.270;4.456;2022-11-20T07:00:13;5.10;99.90
9497;DHT22;4786;51.270;4.456;2022-11-20T07:02:39;5.00;99.90
9497;DHT22;4786;51.270;4.456;2022-11-20T07:05:06;5.00;99.90
9497;DHT22;4786;51.270;4.456;2022-11-20T07:07:31;5.00;99.90
9497;DHT22;4786;51.270;4.456;2022-11-20T07:09:58;4.80;99.90
9497;DHT22;4786;51.270;4.456;2022-11-20T07:12:24;5.00;99.90
9497;DHT22;4786;51.270;4.456;2022-11-20T07:14:49;5.00;99.90
9497;DHT22;4786;51.270;4.456;2022-11-20T07:17:15;5.10;99.90
9497;DHT22;4786;51.270;4.456;2022-11-20T07:19:41;4.90;99.90
9497;DHT22;4786;51.270;4.456;2022-11-20T07:22:08;4.90;99.90
9497;DHT22;4786;51.270;4.456;2022-11-20T07:24:34;4.90;99.90
9497;DHT22;4786;51.270;4.456;2022-11-20T07:27:00;4.90;99.90
9497;DHT22;4786;51.270;4.456;2022-11-20T07:29:26;4.90;99.90
9497;DHT22;4786;51.270;4.456;2022-11-20T07:31:52;4.90;99.90
9497;DHT22;4786;51.270;4.456;2022-11-20T07:34:18;4.90;99.90
9497;DHT22;4786;51.270;4.456;2022-11-20T07:36:44;5.00;99.90
9497;DHT22;4786;51.270;4.456;2022-11-20T07:39:09;5.00;99.90
9497;DHT22;4786;51.270;4.456;2022-11-20T07:41:35;5.20;99.90
9497;DHT22;4786;51.270;4.456;2022-11-20T07:44:01;5.10;99.90
9497;DHT22;4786;51.270;4.456;2022-11-20T07:46:27;5.00;99.90
9497;DHT22;4786;51.270;4.456;2022-11-20T07:48:53;5.00;99.90
9497;DHT22;4786;51.270;4.456;2022-11-20T07:51:19;5.20;99.90
9497;DHT22;4786;51.270;4.456;2022-11-20T07:53:44;5.10;99.90
9497;DHT22;4786;51.270;4.456;2022-11-20T07:56:10;5.10;99.90
9497;DHT22;4786;51.270;4.456;2022-11-20T07:58:36;5.00;99.90
9497;DHT22;4786;51.270;4.456;2022-11-20T08:01:12;5.10;99.90
9497;DHT22;4786;51.270;4.456;2022-11-20T08:03:37;5.20;99.90
9497;DHT22;4786;51.270;4.456;2022-11-20T08:06:03;5.20;99.90
9497;DHT22;4786;51.270;4.456;2022-11-20T08:08:29;5.20;99.90
9497;DHT22;4786;51.270;4.456;2022-11-20T08:10:57;5.20;99.90
9497;DHT22;4786;51.270;4.456;2022-11-20T08:13:43;5.30;99.90
9497;DHT22;4786;51.270;4.456;2022-11-20T08:16:27;5.40;99.90
9497;DHT22;4786;51.270;4.456;2022-11-20T08:18:53;5.30;99.90
9497;DHT22;4786;51.270;4.456;2022-11-20T08:21:19;5.30;99.90
9497;DHT22;4786;51.270;4.456;2022-11-20T08:23:45;5.40;99.90
9497;DHT22;4786;51.270;4.456;2022-11-20T08:26:11;5.40;99.90
9497;DHT22;4786;51.270;4.456;2022-11-20T08:28:38;5.40;99.90
9497;DHT22;4786;51.270;4.456;2022-11-20T08:31:04;5.40;99.90
9497;DHT22;4786;51.270;4.456;2022-11-20T08:33:30;5.40;99.90
9497;DHT22;4786;51.270;4.456;2022-11-20T08:36:02;5.40;99.90
9497;DHT22;4786;51.270;4.456;2022-11-20T08:38:28;5.60;99.90
9497;DHT22;4786;51.270;4.456;2022-11-20T08:40:59;5.50;99.90
9497;DHT22;4786;51.270;4.456;2022-11-20T08:43:44;5.60;99.90
9497;DHT22;4786;51.270;4.456;2022-11-20T08:46:11;5.50;99.90
9497;DHT22;4786;51.270;4.456;2022-11-20T08:48:36;5.60;99.90
9497;DHT22;4786;51.270;4.456;2022-11-20T08:51:02;5.60;99.90
9497;DHT22;4786;51.270;4.456;2022-11-20T08:53:28;5.60;99.90
9497;DHT22;4786;51.270;4.456;2022-11-20T08:55:54;5.60;99.90
9497;DHT22;4786;51.270;4.456;2022-11-20T08:58:20;5.50;99.90
9497;DHT22;4786;51.270;4.456;2022-11-20T09:00:45;5.70;99.90
9497;DHT22;4786;51.270;4.456;2022-11-20T09:03:11;5.60;99.90
9497;DHT22;4786;51.270;4.456;2022-11-20T09:05:38;5.70;99.90
9497;DHT22;4786;51.270;4.456;2022-11-20T09:08:04;5.70;99.90
9497;DHT22;4786;51.270;4.456;2022-11-20T09:10:30;5.60;99.90
9497;DHT22;4786;51.270;4.456;2022-11-20T09:12:56;5.70;99.90
9497;DHT22;4786;51.270;4.456;2022-11-20T09:15:23;5.80;99.90
9497;DHT22;4786;51.270;4.456;2022-11-20T09:18:02;6.00;99.90
9497;DHT22;4786;51.270;4.456;2022-11-20T09:20:30;5.90;99.90
9497;DHT22;4786;51.270;4.456;2022-11-20T09:22:57;6.00;99.90
9497;DHT22;4786;51.270;4.456;2022-11-20T09:25:23;6.00;99.90
9497;DHT22;4786;51.270;4.456;2022-11-20T09:27:58;6.00;99.90
9497;DHT22;4786;51.270;4.456;2022-11-20T09:30:25;6.00;99.90
9497;DHT22;4786;51.270;4.456;2022-11-20T09:32:51;6.00;99.90
9497;DHT22;4786;51.270;4.456;2022-11-20T09:35:17;6.20;99.90
9497;DHT22;4786;51.270;4.456;2022-11-20T09:37:44;6.10;99.90
9497;DHT22;4786;51.270;4.456;2022-11-20T09:40:25;6.10;99.90
9497;DHT22;4786;51.270;4.456;2022-11-20T09:56:28;6.30;99.90
9497;DHT22;4786;51.270;4.456;2022-11-20T09:58:58;6.30;99.90
9497;DHT22;4786;51.270;4.456;2022-11-20T10:01:32;6.30;99.90
9497;DHT22;4786;51.270;4.456;2022-11-20T10:06:37;6.30;99.90
9497;DHT22;4786;51.270;4.456;2022-11-20T10:15:23;6.30;99.90
9497;DHT22;4786;51.270;4.456;2022-11-20T10:18:20;6.40;99.90
9497;DHT22;4786;51.270;4.456;2022-11-20T10:20:35;6.40;99.90
9497;DHT22;4786;51.270;4.456;2022-11-20T10:25:41;6.40;99.90
9497;DHT22;4786;51.270;4.456;2022-11-20T10:31:00;6.40;99.90
9497;DHT22;4786;51.270;4.456;2022-11-20T10:33:27;6.50;99.90
9497;DHT22;4786;51.270;4.456;2022-11-20T10:36:30;6.50;99.90
9497;DHT22;4786;51.270;4.456;2022-11-20T10:39:05;6.60;99.90
9497;DHT22;4786;51.270;4.456;2022-11-20T10:41:38;6.60;99.90
9497;DHT22;4786;51.270;4.456;2022-11-20T10:44:17;6.70;99.90
9497;DHT22;4786;51.270;4.456;2022-11-20T10:47:05;6.60;99.90
9497;DHT22;4786;51.270;4.456;2022-11-20T10:49:36;6.70;99.90
9497;DHT22;4786;51.270;4.456;2022-11-20T10:52:13;6.70;99.90
9497;DHT22;4786;51.270;4.456;2022-11-20T10:54:53;6.80;99.90
9497;DHT22;4786;51.270;4.456;2022-11-20T11:00:14;6.90;99.90
9497;DHT22;4786;51.270;4.456;2022-11-20T11:02:47;6.90;99.90
9497;DHT22;4786;51.270;4.456;2022-11-20T11:05:25;6.90;99.90
9497;DHT22;4786;51.270;4.456;2022-11-20T11:07:55;7.00;99.90
9497;DHT22;4786;51.270;4.456;2022-11-20T11:12:52;7.10;99.90
9497;DHT22;4786;51.270;4.456;2022-11-20T11:17:56;7.20;99.90
9497;DHT22;4786;51.270;4.456;2022-11-20T11:20:25;7.20;99.90
9497;DHT22;4786;51.270;4.456;2022-11-20T11:22:58;7.30;99.90
9497;DHT22;4786;51.270;4.456;2022-11-20T11:25:33;7.30;99.90
9497;DHT22;4786;51.270;4.456;2022-11-20T11:28:19;7.30;99.90
9497;DHT22;4786;51.270;4.456;2022-11-20T11:30:45;7.30;99.90
9497;DHT22;4786;51.270;4.456;2022-11-20T11:33:20;7.30;99.90
9497;DHT22;4786;51.270;4.456;2022-11-20T11:35:50;7.40;99.90
9497;DHT22;4786;51.270;4.456;2022-11-20T11:38:34;7.40;99.90
9497;DHT22;4786;51.270;4.456;2022-11-20T11:41:03;7.40;99.90
9497;DHT22;4786;51.270;4.456;2022-11-20T11:43:34;7.50;99.90
9497;DHT22;4786;51.270;4.456;2022-11-20T11:46:32;7.50;99.90
9497;DHT22;4786;51.270;4.456;2022-11-20T11:59:59;7.80;99.90
9497;DHT22;4786;51.270;4.456;2022-11-20T12:02:37;7.90;99.90
9497;DHT22;4786;51.270;4.456;2022-11-20T12:05:31;7.90;99.90
9497;DHT22;4786;51.270;4.456;2022-11-20T12:10:50;8.10;99.90
9497;DHT22;4786;51.270;4.456;2022-11-20T12:13:42;8.00;99.90
9497;DHT22;4786;51.270;4.456;2022-11-20T12:16:13;8.30;99.90
9497;DHT22;4786;51.270;4.456;2022-11-20T12:18:40;8.20;99.90
9497;DHT22;4786;51.270;4.456;2022-11-20T12:21:31;8.30;99.90
9497;DHT22;4786;51.270;4.456;2022-11-20T12:34:44;8.40;99.90
9497;DHT22;4786;51.270;4.456;2022-11-20T12:40:32;8.20;99.90
9497;DHT22;4786;51.270;4.456;2022-11-20T12:49:01;8.20;99.90
9497;DHT22;4786;51.270;4.456;2022-11-20T12:57:15;8.30;99.90
9497;DHT22;4786;51.270;4.456;2022-11-20T13:08:36;8.20;99.90
9497;DHT22;4786;51.270;4.456;2022-11-20T13:17:18;8.30;99.90
9497;DHT22;4786;51.270;4.456;2022-11-20T13:19:54;8.30;99.90
9497;DHT22;4786;51.270;4.456;2022-11-20T13:22:28;8.20;99.90
9497;DHT22;4786;51.270;4.456;2022-11-20T13:24:54;8.30;99.90
9497;DHT22;4786;51.270;4.456;2022-11-20T13:27:22;8.40;99.90
9497;DHT22;4786;51.270;4.456;2022-11-20T13:30:16;8.30;99.90
9497;DHT22;4786;51.270;4.456;2022-11-20T13:32:51;8.30;99.90
9497;DHT22;4786;51.270;4.456;2022-11-20T13:35:27;8.30;99.90
9497;DHT22;4786;51.270;4.456;2022-11-20T13:38:05;8.30;99.90
9497;DHT22;4786;51.270;4.456;2022-11-20T13:40:35;8.30;99.90
9497;DHT22;4786;51.270;4.456;2022-11-20T13:45:34;8.20;99.90
9497;DHT22;4786;51.270;4.456;2022-11-20T13:48:22;8.10;99.90
9497;DHT22;4786;51.270;4.456;2022-11-20T13:56:34;8.30;99.90
9497;DHT22;4786;51.270;4.456;2022-11-20T13:59:24;8.30;99.90
9497;DHT22;4786;51.270;4.456;2022-11-20T14:01:53;8.20;99.90
9497;DHT22;4786;51.270;4.456;2022-11-20T14:04:27;8.10;99.90
9497;DHT22;4786;51.270;4.456;2022-11-20T14:06:54;8.00;99.90
9497;DHT22;4786;51.270;4.456;2022-11-20T14:09:32;8.10;99.90
9497;DHT22;4786;51.270;4.456;2022-11-20T14:11:58;8.10;99.90
9497;DHT22;4786;51.270;4.456;2022-11-20T14:14:26;8.30;99.90
9497;DHT22;4786;51.270;4.456;2022-11-20T14:17:05;8.20;99.90
9497;DHT22;4786;51.270;4.456;2022-11-20T14:19:31;8.20;99.90
9497;DHT22;4786;51.270;4.456;2022-11-20T14:22:10;8.20;99.90
9497;DHT22;4786;51.270;4.456;2022-11-20T14:24:36;8.10;99.90
9497;DHT22;4786;51.270;4.456;2022-11-20T14:27:02;8.20;99.90
9497;DHT22;4786;51.270;4.456;2022-11-20T14:29:37;8.20;99.90
9497;DHT22;4786;51.270;4.456;2022-11-20T14:32:04;8.20;99.90
9497;DHT22;4786;51.270;4.456;2022-11-20T14:34:33;8.20;99.90
9497;DHT22;4786;51.270;4.456;2022-11-20T14:37:05;8.20;99.90
9497;DHT22;4786;51.270;4.456;2022-11-20T14:39:41;8.20;99.90
9497;DHT22;4786;51.270;4.456;2022-11-20T14:42:19;8.40;99.90
9497;DHT22;4786;51.270;4.456;2022-11-20T14:44:45;8.20;99.90
9497;DHT22;4786;51.270;4.456;2022-11-20T14:47:13;8.20;99.90
9497;DHT22;4786;51.270;4.456;2022-11-20T14:49:40;8.30;99.90
9497;DHT22;4786;51.270;4.456;2022-11-20T14:52:18;8.20;99.90
9497;DHT22;4786;51.270;4.456;2022-11-20T14:54:49;8.20;99.90
9497;DHT22;4786;51.270;4.456;2022-11-20T14:57:31;8.20;99.90
9497;DHT22;4786;51.270;4.456;2022-11-20T15:00:24;8.20;99.90
9497;DHT22;4786;51.270;4.456;2022-11-20T15:02:51;8.20;99.90
9497;DHT22;4786;51.270;4.456;2022-11-20T15:05:23;8.20;99.90
9497;DHT22;4786;51.270;4.456;2022-11-20T15:08:03;8.20;99.90
9497;DHT22;4786;51.270;4.456;2022-11-20T15:10:29;8.20;99.90
9497;DHT22;4786;51.270;4.456;2022-11-20T15:13:00;8.30;99.90
9497;DHT22;4786;51.270;4.456;2022-11-20T15:15:39;8.30;99.90
9497;DHT22;4786;51.270;4.456;2022-11-20T15:18:13;8.30;99.90
9497;DHT22;4786;51.270;4.456;2022-11-20T15:20:40;8.30;99.90
9497;DHT22;4786;51.270;4.456;2022-11-20T15:23:11;8.30;99.90
9497;DHT22;4786;51.270;4.456;2022-11-20T15:25:39;8.40;99.90
9497;DHT22;4786;51.270;4.456;2022-11-20T15:28:22;8.40;99.90
9497;DHT22;4786;51.270;4.456;2022-11-20T15:30:53;8.40;99.90
9497;DHT22;4786;51.270;4.456;2022-11-20T15:33:19;8.40;99.90
9497;DHT22;4786;51.270;4.456;2022-11-20T15:35:45;8.40;99.90
9497;DHT22;4786;51.270;4.456;2022-11-20T15:38:10;8.50;99.90
9497;DHT22;4786;51.270;4.456;2022-11-20T15:40:37;8.60;99.90
9497;DHT22;4786;51.270;4.456;2022-11-20T15:43:03;8.50;99.90
9497;DHT22;4786;51.270;4.456;2022-11-20T15:45:36;8.50;99.90
9497;DHT22;4786;51.270;4.456;2022-11-20T15:48:03;8.70;99.90
9497;DHT22;4786;51.270;4.456;2022-11-20T15:50:36;8.60;99.90
9497;DHT22;4786;51.270;4.456;2022-11-20T15:53:02;8.60;99.90
9497;DHT22;4786;51.270;4.456;2022-11-20T15:55:29;8.70;99.90
9497;DHT22;4786;51.270;4.456;2022-11-20T15:57:55;8.60;99.90
9497;DHT22;4786;51.270;4.456;2022-11-20T16:00:22;8.70;99.90
9497;DHT22;4786;51.270;4.456;2022-11-20T16:02:48;8.70;99.90
9497;DHT22;4786;51.270;4.456;2022-11-20T16:05:15;8.70;99.90
9497;DHT22;4786;51.270;4.456;2022-11-20T16:07:48;8.80;99.90
9497;DHT22;4786;51.270;4.456;2022-11-20T16:10:15;8.80;99.90
9497;DHT22;4786;51.270;4.456;2022-11-20T16:12:41;8.80;99.90
9497;DHT22;4786;51.270;4.456;2022-11-20T16:15:25;8.60;99.90
9497;DHT22;4786;51.270;4.456;2022-11-20T16:18:11;8.80;99.90
9497;DHT22;4786;51.270;4.456;2022-11-20T16:20:37;8.80;99.90
9497;DHT22;4786;51.270;4.456;2022-11-20T16:23:04;8.80;99.90
9497;DHT22;4786;51.270;4.456;2022-11-20T16:25:30;8.70;99.90
9497;DHT22;4786;51.270;4.456;2022-11-20T16:27:56;8.70;99.90
9497;DHT22;4786;51.270;4.456;2022-11-20T16:30:21;8.60;99.90
9497;DHT22;4786;51.270;4.456;2022-11-20T16:32:47;8.60;99.90
9497;DHT22;4786;51.270;4.456;2022-11-20T16:35:14;8.70;99.90
9497;DHT22;4786;51.270;4.456;2022-11-20T16:37:40;8.70;99.90
9497;DHT22;4786;51.270;4.456;2022-11-20T16:40:06;8.70;99.90
9497;DHT22;4786;51.270;4.456;2022-11-20T16:42:34;8.80;99.90
9497;DHT22;4786;51.270;4.456;2022-11-20T16:45:00;8.80;99.90
9497;DHT22;4786;51.270;4.456;2022-11-20T16:47:26;8.80;99.90
9497;DHT22;4786;51.270;4.456;2022-11-20T16:49:52;8.90;99.90
9497;DHT22;4786;51.270;4.456;2022-11-20T16:52:18;8.90;99.90
9497;DHT22;4786;51.270;4.456;2022-11-20T16:54:43;8.90;99.90
9497;DHT22;4786;51.270;4.456;2022-11-20T16:57:09;8.90;99.90
9497;DHT22;4786;51.270;4.456;2022-11-20T16:59:35;8.80;99.90
9497;DHT22;4786;51.270;4.456;2022-11-20T17:02:01;8.80;99.90
9497;DHT22;4786;51.270;4.456;2022-11-20T17:04:27;8.80;99.90
9497;DHT22;4786;51.270;4.456;2022-11-20T17:06:53;8.80;99.90
9497;DHT22;4786;51.270;4.456;2022-11-20T17:09:19;8.70;99.90
9497;DHT22;4786;51.270;4.456;2022-11-20T17:11:45;8.70;99.90
9497;DHT22;4786;51.270;4.456;2022-11-20T17:14:12;8.70;99.90
9497;DHT22;4786;51.270;4.456;2022-11-20T17:16:38;8.70;99.90
9497;DHT22;4786;51.270;4.456;2022-11-20T17:19:05;8.90;99.90
9497;DHT22;4786;51.270;4.456;2022-11-20T17:21:31;8.70;99.90
9497;DHT22;4786;51.270;4.456;2022-11-20T17:24:03;8.70;99.90
9497;DHT22;4786;51.270;4.456;2022-11-20T17:26:29;8.60;99.90
9497;DHT22;4786;51.270;4.456;2022-11-20T17:29:00;8.60;99.90
9497;DHT22;4786;51.270;4.456;2022-11-20T17:31:27;8.60;99.90
9497;DHT22;4786;51.270;4.456;2022-11-20T17:33:53;8.60;99.90
9497;DHT22;4786;51.270;4.456;2022-11-20T17:36:20;8.60;99.90
9497;DHT22;4786;51.270;4.456;2022-11-20T17:38:47;8.70;99.90
9497;DHT22;4786;51.270;4.456;2022-11-20T17:41:18;8.60;99.90
9497;DHT22;4786;51.270;4.456;2022-11-20T17:43:44;8.60;99.90
9497;DHT22;4786;51.270;4.456;2022-11-20T17:46:30;8.60;99.90
9497;DHT22;4786;51.270;4.456;2022-11-20T17:48:59;8.40;99.90
9497;DHT22;4786;51.270;4.456;2022-11-20T17:51:27;8.50;99.90
9497;DHT22;4786;51.270;4.456;2022-11-20T17:53:59;8.50;99.90
9497;DHT22;4786;51.270;4.456;2022-11-20T17:56:30;8.60;99.90
9497;DHT22;4786;51.270;4.456;2022-11-20T17:59:14;8.50;99.90
9497;DHT22;4786;51.270;4.456;2022-11-20T18:01:40;8.50;99.90
9497;DHT22;4786;51.270;4.456;2022-11-20T18:04:09;8.60;99.90
9497;DHT22;4786;51.270;4.456;2022-11-20T18:06:36;8.50;99.90
9497;DHT22;4786;51.270;4.456;2022-11-20T18:09:05;8.50;99.90
9497;DHT22;4786;51.270;4.456;2022-11-20T18:11:34;8.60;99.90
9497;DHT22;4786;51.270;4.456;2022-11-20T18:14:02;8.50;99.90
9497;DHT22;4786;51.270;4.456;2022-11-20T18:16:55;8.50;99.90